sensor_id;sensor_type;location;lat;lon;timestamp;pressure;altitude;pressure_sealevel;temperature;humidity
21879;BME280;27908;42.708;23.278;2023-05-18T00:02:04;64198.28;;;13.36;100.00
21879;BME280;27908;42.708;23.278;2023-05-18T00:04:30;64206.38;;;13.27;100.00
21879;BME280;27908;42.708;23.278;2023-05-18T00:06:58;64210.13;;;13.40;100.00
21879;BME280;27908;42.708;23.278;2023-05-18T00:09:28;64245.56;;;13.50;100.00
21879;BME280;27908;42.708;23.278;2023-05-18T00:11:55;64180.38;;;13.36;100.00
21879;BME280;27908;42.708;23.278;2023-05-18T00:14:20;64196.69;;;13.30;100.00
21879;BME280;27908;42.708;23.278;2023-05-18T00:16:46;64196.25;;;13.34;100.00
21879;BME280;27908;42.708;23.278;2023-05-18T00:19:12;64179.72;;;13.26;100.00
21879;BME280;27908;42.708;23.278;2023-05-18T00:21:42;64188.16;;;13.46;100.00
21879;BME280;27908;42.708;23.278;2023-05-18T00:24:11;64279.94;;;13.53;100.00
21879;BME280;27908;42.708;23.278;2023-05-18T00:26:47;64237.50;;;13.59;100.00
21879;BME280;27908;42.708;23.278;2023-05-18T00:29:13;64222.69;;;13.62;100.00
21879;BME280;27908;42.708;23.278;2023-05-18T00:31:39;64212.38;;;13.57;100.00
21879;BME280;27908;42.708;23.278;2023-05-18T00:34:09;64294.28;;;13.54;100.00
21879;BME280;27908;42.708;23.278;2023-05-18T00:36:35;64227.81;;;13.62;100.00
21879;BME280;27908;42.708;23.278;2023-05-18T00:39:02;64225.25;;;13.64;100.00
21879;BME280;27908;42.708;23.278;2023-05-18T00:41:28;64237.44;;;13.54;100.00
21879;BME280;27908;42.708;23.278;2023-05-18T00:43:54;64239.00;;;13.55;100.00
21879;BME280;27908;42.708;23.278;2023-05-18T00:46:20;64223.75;;;13.65;100.00
21879;BME280;27908;42.708;23.278;2023-05-18T00:48:47;64224.66;;;13.56;100.00
21879;BME280;27908;42.708;23.278;2023-05-18T00:51:13;64199.38;;;13.40;100.00
21879;BME280;27908;42.708;23.278;2023-05-18T00:53:38;64216.75;;;13.37;100.00
21879;BME280;27908;42.708;23.278;2023-05-18T00:56:04;64228.63;;;13.46;100.00
21879;BME280;27908;42.708;23.278;2023-05-18T00:58:29;64218.94;;;13.49;100.00
21879;BME280;27908;42.708;23.278;2023-05-18T01:00:58;64228.56;;;13.41;100.00
21879;BME280;27908;42.708;23.278;2023-05-18T01:03:27;64172.34;;;13.07;100.00
21879;BME280;27908;42.708;23.278;2023-05-18T01:05:54;64156.16;;;13.23;100.00
21879;BME280;27908;42.708;23.278;2023-05-18T01:08:23;64199.28;;;13.32;100.00
21879;BME280;27908;42.708;23.278;2023-05-18T01:14:12;64183.38;;;13.29;100.00
21879;BME280;27908;42.708;23.278;2023-05-18T01:22:15;64161.81;;;13.26;100.00
21879;BME280;27908;42.708;23.278;2023-05-18T01:24:43;64149.19;;;12.97;100.00
21879;BME280;27908;42.708;23.278;2023-05-18T01:27:15;64189.78;;;13.11;100.00
21879;BME280;27908;42.708;23.278;2023-05-18T01:29:41;64210.91;;;13.21;100.00
21879;BME280;27908;42.708;23.278;2023-05-18T01:32:07;64220.25;;;13.30;100.00
21879;BME280;27908;42.708;23.278;2023-05-18T01:34:32;64208.94;;;13.27;100.00
21879;BME280;27908;42.708;23.278;2023-05-18T01:36:58;64230.13;;;13.42;100.00
21879;BME280;27908;42.708;23.278;2023-05-18T01:39:23;64216.81;;;13.44;100.00
21879;BME280;27908;42.708;23.278;2023-05-18T01:41:53;64239.00;;;13.55;100.00
21879;BME280;27908;42.708;23.278;2023-05-18T01:47:15;64265.75;;;13.66;100.00
21879;BME280;27908;42.708;23.278;2023-05-18T01:52:28;64198.94;;;13.47;100.00
21879;BME280;27908;42.708;23.278;2023-05-18T01:55:00;64232.75;;;13.47;100.00
21879;BME280;27908;42.708;23.278;2023-05-18T01:57:26;64242.41;;;13.42;100.00
21879;BME280;27908;42.708;23.278;2023-05-18T01:59:53;64219.34;;;13.39;100.00
21879;BME280;27908;42.708;23.278;2023-05-18T02:02:19;64196.28;;;13.39;100.00
21879;BME280;27908;42.708;23.278;2023-05-18T02:04:45;64232.72;;;13.45;100.00
21879;BME280;27908;42.708;23.278;2023-05-18T02:07:10;64236.81;;;13.46;100.00
21879;BME280;27908;42.708;23.278;2023-05-18T02:09:36;64212.34;;;13.54;100.00
21879;BME280;27908;42.708;23.278;2023-05-18T02:12:01;64173.03;;;13.22;100.00
21879;BME280;27908;42.708;23.278;2023-05-18T02:14:27;64175.50;;;13.12;100.00
21879;BME280;27908;42.708;23.278;2023-05-18T02:16:52;64190.03;;;13.31;100.00
21879;BME280;27908;42.708;23.278;2023-05-18T02:19:21;64173.06;;;13.24;100.00
21879;BME280;27908;42.708;23.278;2023-05-18T02:21:46;64166.38;;;13.20;100.00
21879;BME280;27908;42.708;23.278;2023-05-18T02:24:12;64197.25;;;13.33;100.00
21879;BME280;27908;42.708;23.278;2023-05-18T02:26:37;64174.13;;;13.28;100.00
21879;BME280;27908;42.708;23.278;2023-05-18T02:29:04;64154.84;;;13.00;100.00
21879;BME280;27908;42.708;23.278;2023-05-18T02:31:38;64148.16;;;12.96;100.00
21879;BME280;27908;42.708;23.278;2023-05-18T02:34:03;64143.56;;;12.96;100.00
21879;BME280;27908;42.708;23.278;2023-05-18T02:36:29;64177.31;;;12.97;100.00
21879;BME280;27908;42.708;23.278;2023-05-18T02:39:13;64094.94;;;12.94;100.00
21879;BME280;27908;42.708;23.278;2023-05-18T02:41:38;64186.22;;;13.13;100.00
21879;BME280;27908;42.708;23.278;2023-05-18T02:44:04;64168.94;;;13.20;100.00
21879;BME280;27908;42.708;23.278;2023-05-18T02:46:31;64156.91;;;13.02;100.00
21879;BME280;27908;42.708;23.278;2023-05-18T02:48:57;64191.38;;;13.15;100.00
21879;BME280;27908;42.708;23.278;2023-05-18T02:51:22;64199.59;;;13.18;100.00
21879;BME280;27908;42.708;23.278;2023-05-18T02:53:48;64252.34;;;13.19;100.00
21879;BME280;27908;42.708;23.278;2023-05-18T02:56:14;64221.25;;;13.29;100.00
21879;BME280;27908;42.708;23.278;2023-05-18T02:58:42;64170.50;;;13.24;100.00
21879;BME280;27908;42.708;23.278;2023-05-18T03:01:08;64233.50;;;13.26;100.00
21879;BME280;27908;42.708;23.278;2023-05-18T03:03:34;64179.19;;;13.23;100.00
21879;BME280;27908;42.708;23.278;2023-05-18T03:06:00;64216.16;;;13.31;100.00
21879;BME280;27908;42.708;23.278;2023-05-18T03:08:27;64224.44;;;13.39;100.00
21879;BME280;27908;42.708;23.278;2023-05-18T03:10:53;64163.75;;;13.15;100.00
21879;BME280;27908;42.708;23.278;2023-05-18T03:13:18;64221.34;;;13.36;100.00
21879;BME280;27908;42.708;23.278;2023-05-18T03:15:44;64172.50;;;13.19;100.00
21879;BME280;27908;42.708;23.278;2023-05-18T03:18:12;64219.75;;;13.32;100.00
21879;BME280;27908;42.708;23.278;2023-05-18T03:20:38;64128.63;;;13.33;100.00
21879;BME280;27908;42.708;23.278;2023-05-18T03:23:04;64196.53;;;13.17;100.00
21879;BME280;27908;42.708;23.278;2023-05-18T03:25:29;64195.66;;;13.29;100.00
21879;BME280;27908;42.708;23.278;2023-05-18T03:27:57;64178.63;;;13.17;100.00
21879;BME280;27908;42.708;23.278;2023-05-18T03:30:22;64192.03;;;13.28;100.00
21879;BME280;27908;42.708;23.278;2023-05-18T03:32:48;64178.16;;;13.22;100.00
21879;BME280;27908;42.708;23.278;2023-05-18T03:35:14;64208.44;;;13.29;100.00
21879;BME280;27908;42.708;23.278;2023-05-18T03:37:40;64197.66;;;13.26;100.00
21879;BME280;27908;42.708;23.278;2023-05-18T03:40:11;64185.25;;;13.16;100.00
21879;BME280;27908;42.708;23.278;2023-05-18T03:42:41;64190.94;;;13.22;100.00
21879;BME280;27908;42.708;23.278;2023-05-18T03:45:08;64226.91;;;13.32;100.00
21879;BME280;27908;42.708;23.278;2023-05-18T03:47:33;64200.78;;;13.29;100.00
21879;BME280;27908;42.708;23.278;2023-05-18T03:49:59;64208.72;;;13.51;100.00
21879;BME280;27908;42.708;23.278;2023-05-18T03:52:25;64208.13;;;13.43;100.00
21879;BME280;27908;42.708;23.278;2023-05-18T03:54:50;64202.03;;;13.50;100.00
21879;BME280;27908;42.708;23.278;2023-05-18T03:57:16;64180.88;;;13.34;100.00
21879;BME280;27908;42.708;23.278;2023-05-18T03:59:45;64164.72;;;13.12;100.00
21879;BME280;27908;42.708;23.278;2023-05-18T04:02:11;64179.47;;;13.04;100.00
21879;BME280;27908;42.708;23.278;2023-05-18T04:04:38;64210.91;;;13.21;100.00
21879;BME280;27908;42.708;23.278;2023-05-18T04:07:07;64181.72;;;13.20;100.00
21879;BME280;27908;42.708;23.278;2023-05-18T04:09:33;64183.88;;;13.30;100.00
21879;BME280;27908;42.708;23.278;2023-05-18T04:11:59;64214.13;;;13.32;100.00
21879;BME280;27908;42.708;23.278;2023-05-18T04:14:25;64232.56;;;13.32;100.00
21879;BME280;27908;42.708;23.278;2023-05-18T04:16:52;64192.25;;;13.43;100.00
21879;BME280;27908;42.708;23.278;2023-05-18T04:19:18;64263.97;;;13.45;100.00
21879;BME280;27908;42.708;23.278;2023-05-18T04:21:43;64231.78;;;13.51;100.00
21879;BME280;27908;42.708;23.278;2023-05-18T04:24:11;64242.47;;;13.47;100.00
21879;BME280;27908;42.708;23.278;2023-05-18T04:26:38;64234.22;;;13.41;100.00
21879;BME280;27908;42.708;23.278;2023-05-18T04:29:04;64222.41;;;13.40;100.00
21879;BME280;27908;42.708;23.278;2023-05-18T04:31:35;64228.97;;;13.34;100.00
21879;BME280;27908;42.708;23.278;2023-05-18T04:34:01;64223.13;;;13.55;100.00
21879;BME280;27908;42.708;23.278;2023-05-18T04:36:27;64267.91;;;13.73;100.00
21879;BME280;27908;42.708;23.278;2023-05-18T04:38:55;64280.28;;;13.80;100.00
21879;BME280;27908;42.708;23.278;2023-05-18T04:41:23;64242.09;;;13.58;100.00
21879;BME280;27908;42.708;23.278;2023-05-18T04:43:49;64292.56;;;13.80;100.00
21879;BME280;27908;42.708;23.278;2023-05-18T04:46:15;64285.00;;;13.87;100.00
21879;BME280;27908;42.708;23.278;2023-05-18T04:48:41;64288.69;;;13.95;100.00
21879;BME280;27908;42.708;23.278;2023-05-18T04:51:08;64269.25;;;13.60;100.00
21879;BME280;27908;42.708;23.278;2023-05-18T04:53:34;64212.81;;;13.52;100.00
21879;BME280;27908;42.708;23.278;2023-05-18T04:56:03;64218.69;;;13.73;100.00
21879;BME280;27908;42.708;23.278;2023-05-18T04:58:28;64285.91;;;13.81;100.00
21879;BME280;27908;42.708;23.278;2023-05-18T05:00:54;64273.56;;;13.76;100.00
21879;BME280;27908;42.708;23.278;2023-05-18T05:03:20;64257.66;;;13.73;100.00
21879;BME280;27908;42.708;23.278;2023-05-18T05:05:46;64264.25;;;13.67;100.00
21879;BME280;27908;42.708;23.278;2023-05-18T05:08:11;64269.97;;;13.75;100.00
21879;BME280;27908;42.708;23.278;2023-05-18T05:10:37;64315.03;;;13.74;100.00
21879;BME280;27908;42.708;23.278;2023-05-18T05:13:03;64246.94;;;13.78;100.00
21879;BME280;27908;42.708;23.278;2023-05-18T05:15:28;64312.22;;;13.93;100.00
21879;BME280;27908;42.708;23.278;2023-05-18T05:17:54;64288.81;;;14.05;100.00
21879;BME280;27908;42.708;23.278;2023-05-18T05:20:19;64310.88;;;14.07;100.00
21879;BME280;27908;42.708;23.278;2023-05-18T05:22:45;64352.81;;;14.00;100.00
21879;BME280;27908;42.708;23.278;2023-05-18T05:25:11;64318.19;;;14.19;100.00
21879;BME280;27908;42.708;23.278;2023-05-18T05:27:36;64362.91;;;14.27;100.00
21879;BME280;27908;42.708;23.278;2023-05-18T05:30:02;64350.53;;;14.23;100.00
21879;BME280;27908;42.708;23.278;2023-05-18T05:32:27;64335.75;;;14.28;100.00
21879;BME280;27908;42.708;23.278;2023-05-18T05:34:53;64357.25;;;14.24;100.00
21879;BME280;27908;42.708;23.278;2023-05-18T05:37:18;64352.13;;;14.26;100.00
21879;BME280;27908;42.708;23.278;2023-05-18T05:39:44;64349.47;;;14.19;100.00
21879;BME280;27908;42.708;23.278;2023-05-18T05:42:10;64353.13;;;14.25;100.00
21879;BME280;27908;42.708;23.278;2023-05-18T05:44:35;64356.81;;;14.33;100.00
21879;BME280;27908;42.708;23.278;2023-05-18T05:47:01;64324.94;;;14.25;100.00
21879;BME280;27908;42.708;23.278;2023-05-18T05:49:28;64334.81;;;14.37;100.00
21879;BME280;27908;42.708;23.278;2023-05-18T05:51:53;64322.94;;;14.28;100.00
21879;BME280;27908;42.708;23.278;2023-05-18T05:54:19;64343.44;;;14.28;100.00
21879;BME280;27908;42.708;23.278;2023-05-18T05:56:44;64374.34;;;14.38;100.00
21879;BME280;27908;42.708;23.278;2023-05-18T05:59:09;64305.09;;;14.38;100.00
21879;BME280;27908;42.708;23.278;2023-05-18T06:01:35;64406.25;;;14.46;100.00
21879;BME280;27908;42.708;23.278;2023-05-18T06:04:01;64360.66;;;14.52;100.00
21879;BME280;27908;42.708;23.278;2023-05-18T06:06:30;64388.19;;;14.39;100.00
21879;BME280;27908;42.708;23.278;2023-05-18T06:08:59;64345.31;;;14.15;100.00
21879;BME280;27908;42.708;23.278;2023-05-18T06:11:25;64343.34;;;14.21;100.00
21879;BME280;27908;42.708;23.278;2023-05-18T06:13:50;64258.13;;;14.10;100.00
21879;BME280;27908;42.708;23.278;2023-05-18T06:16:16;64307.31;;;14.11;100.00
21879;BME280;27908;42.708;23.278;2023-05-18T06:18:41;64331.97;;;14.12;100.00
21879;BME280;27908;42.708;23.278;2023-05-18T06:21:07;64369.03;;;14.25;100.00
21879;BME280;27908;42.708;23.278;2023-05-18T06:23:32;64361.22;;;14.16;100.00
21879;BME280;27908;42.708;23.278;2023-05-18T06:25:58;64385.50;;;14.29;100.00
21879;BME280;27908;42.708;23.278;2023-05-18T06:28:23;64374.16;;;14.25;100.00
21879;BME280;27908;42.708;23.278;2023-05-18T06:30:49;64360.97;;;14.35;100.00
21879;BME280;27908;42.708;23.278;2023-05-18T06:33:15;64354.38;;;14.43;100.00
21879;BME280;27908;42.708;23.278;2023-05-18T06:35:40;64483.09;;;14.39;100.00
21879;BME280;27908;42.708;23.278;2023-05-18T06:38:06;64376.97;;;14.45;100.00
21879;BME280;27908;42.708;23.278;2023-05-18T06:40:31;64391.84;;;14.42;100.00
21879;BME280;27908;42.708;23.278;2023-05-18T06:42:57;64368.91;;;14.55;100.00
21879;BME280;27908;42.708;23.278;2023-05-18T06:45:22;64418.03;;;14.45;100.00
21879;BME280;27908;42.708;23.278;2023-05-18T06:47:48;64407.34;;;14.52;100.00
21879;BME280;27908;42.708;23.278;2023-05-18T06:50:13;64419.44;;;14.76;100.00
21879;BME280;27908;42.708;23.278;2023-05-18T06:52:39;64410.00;;;14.59;100.00
21879;BME280;27908;42.708;23.278;2023-05-18T06:55:04;64416.69;;;14.61;100.00
21879;BME280;27908;42.708;23.278;2023-05-18T06:57:30;64408.53;;;14.65;100.00
21879;BME280;27908;42.708;23.278;2023-05-18T06:59:56;64432.75;;;14.74;100.00
21879;BME280;27908;42.708;23.278;2023-05-18T07:02:21;64465.38;;;14.95;100.00
21879;BME280;27908;42.708;23.278;2023-05-18T07:04:47;64390.97;;;14.56;100.00
21879;BME280;27908;42.708;23.278;2023-05-18T07:07:14;64417.22;;;14.64;100.00
21879;BME280;27908;42.708;23.278;2023-05-18T07:09:41;64433.03;;;14.55;100.00
21879;BME280;27908;42.708;23.278;2023-05-18T07:12:07;64456.44;;;14.79;100.00
21879;BME280;27908;42.708;23.278;2023-05-18T07:14:33;64400.78;;;14.60;100.00
21879;BME280;27908;42.708;23.278;2023-05-18T07:16:59;64411.66;;;14.68;100.00
21879;BME280;27908;42.708;23.278;2023-05-18T07:19:24;64400.75;;;14.58;100.00
21879;BME280;27908;42.708;23.278;2023-05-18T07:21:50;64422.25;;;14.54;100.00
21879;BME280;27908;42.708;23.278;2023-05-18T07:24:15;64409.50;;;14.61;100.00
21879;BME280;27908;42.708;23.278;2023-05-18T07:26:40;64363.06;;;14.39;100.00
21879;BME280;27908;42.708;23.278;2023-05-18T07:29:06;64330.00;;;14.20;100.00
21879;BME280;27908;42.708;23.278;2023-05-18T07:31:31;64376.91;;;14.38;100.00
21879;BME280;27908;42.708;23.278;2023-05-18T07:33:58;64322.38;;;14.25;100.00
21879;BME280;27908;42.708;23.278;2023-05-18T07:36:23;64401.44;;;14.32;100.00
21879;BME280;27908;42.708;23.278;2023-05-18T07:38:50;64340.44;;;14.35;100.00
21879;BME280;27908;42.708;23.278;2023-05-18T07:41:19;64386.00;;;14.29;100.00
21879;BME280;27908;42.708;23.278;2023-05-18T07:43:47;64377.47;;;14.43;100.00
21879;BME280;27908;42.708;23.278;2023-05-18T07:46:12;64363.22;;;14.52;100.00
21879;BME280;27908;42.708;23.278;2023-05-18T07:48:37;64360.16;;;14.54;100.00
21879;BME280;27908;42.708;23.278;2023-05-18T07:51:03;64423.75;;;14.51;100.00
21879;BME280;27908;42.708;23.278;2023-05-18T07:53:28;64389.28;;;14.45;100.00
21879;BME280;27908;42.708;23.278;2023-05-18T07:55:54;64395.56;;;14.56;100.00
21879;BME280;27908;42.708;23.278;2023-05-18T07:58:19;64354.75;;;14.31;100.00
21879;BME280;27908;42.708;23.278;2023-05-18T08:00:45;64407.88;;;14.53;100.00
21879;BME280;27908;42.708;23.278;2023-05-18T08:03:10;64382.69;;;14.51;100.00
21879;BME280;27908;42.708;23.278;2023-05-18T08:05:36;64445.41;;;14.59;100.00
21879;BME280;27908;42.708;23.278;2023-05-18T08:08:01;64396.78;;;14.69;100.00
21879;BME280;27908;42.708;23.278;2023-05-18T08:10:28;64467.72;;;14.80;100.00
21879;BME280;27908;42.708;23.278;2023-05-18T08:12:53;64439.50;;;14.80;100.00
21879;BME280;27908;42.708;23.278;2023-05-18T08:15:19;64431.72;;;14.73;100.00
21879;BME280;27908;42.708;23.278;2023-05-18T08:17:44;64394.34;;;14.81;100.00
21879;BME280;27908;42.708;23.278;2023-05-18T08:20:10;64359.72;;;14.19;100.00
21879;BME280;27908;42.708;23.278;2023-05-18T08:22:35;64333.13;;;14.25;100.00
21879;BME280;27908;42.708;23.278;2023-05-18T08:25:01;64325.97;;;14.23;100.00
21879;BME280;27908;42.708;23.278;2023-05-18T08:27:27;64269.28;;;14.01;100.00
21879;BME280;27908;42.708;23.278;2023-05-18T08:29:53;64326.44;;;14.22;100.00
21879;BME280;27908;42.708;23.278;2023-05-18T08:32:18;64351.56;;;14.21;100.00
21879;BME280;27908;42.708;23.278;2023-05-18T08:34:44;64449.59;;;14.29;100.00
21879;BME280;27908;42.708;23.278;2023-05-18T08:37:09;64310.44;;;14.14;100.00
21879;BME280;27908;42.708;23.278;2023-05-18T08:39:34;64295.44;;;14.02;100.00
21879;BME280;27908;42.708;23.278;2023-05-18T08:44:45;64272.22;;;13.89;100.00
21879;BME280;27908;42.708;23.278;2023-05-18T08:47:13;64262.91;;;13.83;100.00
21879;BME280;27908;42.708;23.278;2023-05-18T08:49:41;64239.53;;;13.58;100.00
21879;BME280;27908;42.708;23.278;2023-05-18T08:52:07;64295.13;;;13.77;100.00
21879;BME280;27908;42.708;23.278;2023-05-18T08:54:35;64255.25;;;13.86;100.00
21879;BME280;27908;42.708;23.278;2023-05-18T08:57:03;64279.31;;;13.84;100.00
21879;BME280;27908;42.708;23.278;2023-05-18T08:59:32;64297.81;;;13.87;100.00
21879;BME280;27908;42.708;23.278;2023-05-18T09:02:00;64340.84;;;13.89;100.00
21879;BME280;27908;42.708;23.278;2023-05-18T09:04:26;64330.69;;;13.94;100.00
21879;BME280;27908;42.708;23.278;2023-05-18T09:06:53;64318.09;;;14.11;100.00
21879;BME280;27908;42.708;23.278;2023-05-18T09:09:20;64328.47;;;14.21;100.00
21879;BME280;27908;42.708;23.278;2023-05-18T09:11:46;64350.44;;;14.15;100.00
21879;BME280;27908;42.708;23.278;2023-05-18T09:14:12;64340.16;;;14.13;100.00
21879;BME280;27908;42.708;23.278;2023-05-18T09:16:38;64347.38;;;14.15;100.00
21879;BME280;27908;42.708;23.278;2023-05-18T09:19:03;64324.28;;;14.12;100.00
21879;BME280;27908;42.708;23.278;2023-05-18T09:21:32;64348.41;;;14.16;100.00
21879;BME280;27908;42.708;23.278;2023-05-18T09:23:59;64366.81;;;14.11;100.00
21879;BME280;27908;42.708;23.278;2023-05-18T09:26:25;64376.38;;;14.37;100.00
21879;BME280;27908;42.708;23.278;2023-05-18T09:28:52;64377.34;;;14.33;100.00
21879;BME280;27908;42.708;23.278;2023-05-18T09:31:19;64322.50;;;14.35;100.00
21879;BME280;27908;42.708;23.278;2023-05-18T09:33:46;64367.63;;;14.34;100.00
21879;BME280;27908;42.708;23.278;2023-05-18T09:36:13;64443.81;;;14.55;100.00
21879;BME280;27908;42.708;23.278;2023-05-18T09:38:43;64393.63;;;14.63;100.00
21879;BME280;27908;42.708;23.278;2023-05-18T09:41:11;64414.66;;;14.64;100.00
21879;BME280;27908;42.708;23.278;2023-05-18T09:43:38;64418.41;;;14.75;100.00
21879;BME280;27908;42.708;23.278;2023-05-18T09:46:05;64442.38;;;14.63;100.00
21879;BME280;27908;42.708;23.278;2023-05-18T09:48:34;64444.00;;;14.70;100.00
21879;BME280;27908;42.708;23.278;2023-05-18T09:51:01;64411.09;;;14.65;100.00
21879;BME280;27908;42.708;23.278;2023-05-18T09:53:26;64350.59;;;14.69;100.00
21879;BME280;27908;42.708;23.278;2023-05-18T09:55:52;64422.06;;;14.78;100.00
21879;BME280;27908;42.708;23.278;2023-05-18T09:58:17;64427.06;;;14.68;100.00
21879;BME280;27908;42.708;23.278;2023-05-18T10:00:47;64389.34;;;14.50;100.00
21879;BME280;27908;42.708;23.278;2023-05-18T10:03:20;64486.06;;;14.68;100.00
21879;BME280;27908;42.708;23.278;2023-05-18T10:05:46;64403.88;;;14.63;100.00
21879;BME280;27908;42.708;23.278;2023-05-18T10:08:13;64428.38;;;14.53;100.00
21879;BME280;27908;42.708;23.278;2023-05-18T10:10:44;64555.69;;;14.57;100.00
21879;BME280;27908;42.708;23.278;2023-05-18T10:13:17;64358.72;;;14.62;100.00
21879;BME280;27908;42.708;23.278;2023-05-18T10:15:49;64479.38;;;14.67;100.00
21879;BME280;27908;42.708;23.278;2023-05-18T10:18:25;64432.41;;;14.88;100.00
21879;BME280;27908;42.708;23.278;2023-05-18T10:20:52;64494.75;;;15.03;100.00
21879;BME280;27908;42.708;23.278;2023-05-18T10:23:19;64451.00;;;14.96;100.00
21879;BME280;27908;42.708;23.278;2023-05-18T10:25:47;64488.63;;;15.07;100.00
21879;BME280;27908;42.708;23.278;2023-05-18T10:28:21;64477.38;;;15.09;100.00
21879;BME280;27908;42.708;23.278;2023-05-18T10:30:56;64509.69;;;15.08;100.00
21879;BME280;27908;42.708;23.278;2023-05-18T10:33:23;64505.53;;;15.04;100.00
21879;BME280;27908;42.708;23.278;2023-05-18T10:35:49;64505.59;;;15.09;100.00
21879;BME280;27908;42.708;23.278;2023-05-18T10:38:20;64450.66;;;15.10;100.00
21879;BME280;27908;42.708;23.278;2023-05-18T10:40:55;64464.81;;;14.92;100.00
21879;BME280;27908;42.708;23.278;2023-05-18T10:43:22;64458.25;;;15.00;100.00
21879;BME280;27908;42.708;23.278;2023-05-18T10:45:53;64488.75;;;15.15;100.00
21879;BME280;27908;42.708;23.278;2023-05-18T10:48:20;64540.69;;;15.20;100.00
21879;BME280;27908;42.708;23.278;2023-05-18T10:50:48;64488.84;;;15.25;100.00
21879;BME280;27908;42.708;23.278;2023-05-18T10:53:19;64530.00;;;15.27;100.00
21879;BME280;27908;42.708;23.278;2023-05-18T10:55:49;64560.88;;;15.32;100.00
21879;BME280;27908;42.708;23.278;2023-05-18T10:58:17;64498.06;;;15.21;100.00
21879;BME280;27908;42.708;23.278;2023-05-18T11:00:48;64519.25;;;15.31;100.00
21879;BME280;27908;42.708;23.278;2023-05-18T11:03:16;64478.78;;;15.00;100.00
21879;BME280;27908;42.708;23.278;2023-05-18T11:05:43;64483.09;;;15.14;100.00
21879;BME280;27908;42.708;23.278;2023-05-18T11:08:12;64495.81;;;15.07;100.00
21879;BME280;27908;42.708;23.278;2023-05-18T11:10:58;64465.38;;;14.95;100.00
21879;BME280;27908;42.708;23.278;2023-05-18T11:13:28;64483.38;;;14.97;100.00
21879;BME280;27908;42.708;23.278;2023-05-18T11:18:41;64429.75;;;14.78;100.00
21879;BME280;27908;42.708;23.278;2023-05-18T11:26:47;64464.13;;;14.77;100.00
21879;BME280;27908;42.708;23.278;2023-05-18T11:29:29;64438.13;;;14.91;100.00
21879;BME280;27908;42.708;23.278;2023-05-18T11:31:56;64438.69;;;14.96;100.00
21879;BME280;27908;42.708;23.278;2023-05-18T11:37:07;64439.56;;;14.83;100.00
21879;BME280;27908;42.708;23.278;2023-05-18T11:39:34;64406.00;;;14.68;100.00
21879;BME280;27908;42.708;23.278;2023-05-18T11:42:10;64416.03;;;14.51;100.00
21879;BME280;27908;42.708;23.278;2023-05-18T11:44:38;64339.38;;;14.31;100.00
21879;BME280;27908;42.708;23.278;2023-05-18T11:47:07;64292.28;;;13.96;100.00
21879;BME280;27908;42.708;23.278;2023-05-18T11:49:43;64340.66;;;14.11;100.00
21879;BME280;27908;42.708;23.278;2023-05-18T11:54:55;64341.13;;;14.06;100.00
21879;BME280;27908;42.708;23.278;2023-05-18T11:57:24;64295.28;;;13.92;100.00
21879;BME280;27908;42.708;23.278;2023-05-18T11:59:57;64302.31;;;13.79;100.00
21879;BME280;27908;42.708;23.278;2023-05-18T12:02:24;64271.00;;;13.76;100.00
21879;BME280;27908;42.708;23.278;2023-05-18T12:04:54;64459.09;;;13.80;100.00
21879;BME280;27908;42.708;23.278;2023-05-18T12:07:22;64289.53;;;13.82;100.00
21879;BME280;27908;42.708;23.278;2023-05-18T12:09:49;64303.41;;;13.85;100.00
21879;BME280;27908;42.708;23.278;2023-05-18T12:12:16;64333.31;;;13.99;100.00
21879;BME280;27908;42.708;23.278;2023-05-18T12:14:47;64290.91;;;14.10;100.00
21879;BME280;27908;42.708;23.278;2023-05-18T12:17:16;64382.78;;;14.17;100.00
21879;BME280;27908;42.708;23.278;2023-05-18T12:19:43;64364.50;;;14.31;100.00
21879;BME280;27908;42.708;23.278;2023-05-18T12:22:12;64330.03;;;14.23;100.00
21879;BME280;27908;42.708;23.278;2023-05-18T12:24:39;64336.25;;;14.28;100.00
21879;BME280;27908;42.708;23.278;2023-05-18T12:27:05;64368.63;;;14.32;100.00
21879;BME280;27908;42.708;23.278;2023-05-18T12:29:32;64367.19;;;14.41;100.00
21879;BME280;27908;42.708;23.278;2023-05-18T12:31:57;64404.25;;;14.52;100.00
21879;BME280;27908;42.708;23.278;2023-05-18T12:34:29;64366.31;;;14.52;100.00
21879;BME280;27908;42.708;23.278;2023-05-18T12:36:55;64398.72;;;14.61;100.00
21879;BME280;27908;42.708;23.278;2023-05-18T12:39:21;64431.22;;;14.72;100.00
21879;BME280;27908;42.708;23.278;2023-05-18T12:41:46;64413.75;;;14.73;100.00
21879;BME280;27908;42.708;23.278;2023-05-18T12:44:13;64400.00;;;14.82;100.00
21879;BME280;27908;42.708;23.278;2023-05-18T12:46:40;64433.97;;;14.87;100.00
21879;BME280;27908;42.708;23.278;2023-05-18T12:49:07;64464.28;;;14.89;100.00
21879;BME280;27908;42.708;23.278;2023-05-18T12:51:34;64440.19;;;14.93;100.00
21879;BME280;27908;42.708;23.278;2023-05-18T12:54:04;64436.84;;;14.70;100.00
21879;BME280;27908;42.708;23.278;2023-05-18T12:56:52;64405.22;;;14.87;100.00
21879;BME280;27908;42.708;23.278;2023-05-18T12:59:23;64478.03;;;14.83;100.00
21879;BME280;27908;42.708;23.278;2023-05-18T13:01:49;64392.38;;;14.45;100.00
21879;BME280;27908;42.708;23.278;2023-05-18T13:04:14;64409.03;;;14.63;100.00
21879;BME280;27908;42.708;23.278;2023-05-18T13:06:40;64430.97;;;14.55;100.00
21879;BME280;27908;42.708;23.278;2023-05-18T13:09:07;64425.09;;;14.76;100.00
21879;BME280;27908;42.708;23.278;2023-05-18T13:11:35;64378.09;;;14.51;100.00